sensor_id;sensor_type;location;lat;lon;timestamp;temperature;humidity
3846;DHT22;1938;50.812;7.738;2023-02-28T00:00:44;-1.20;99.90
3846;DHT22;1938;50.812;7.738;2023-02-28T00:03:10;-1.30;1.00
3846;DHT22;1938;50.812;7.738;2023-02-28T00:05:35;-1.40;28.40
3846;DHT22;1938;50.812;7.738;2023-02-28T00:08:01;-1.40;54.00
3846;DHT22;1938;50.812;7.738;2023-02-28T00:10:29;-1.40;65.50
3846;DHT22;1938;50.812;7.738;2023-02-28T00:12:59;-1.40;54.50
3846;DHT22;1938;50.812;7.738;2023-02-28T00:15:25;-1.50;80.20
3846;DHT22;1938;50.812;7.738;2023-02-28T00:17:51;-1.60;94.60
3846;DHT22;1938;50.812;7.738;2023-02-28T00:20:18;-1.70;99.90
3846;DHT22;1938;50.812;7.738;2023-02-28T00:22:47;-1.70;99.90
3846;DHT22;1938;50.812;7.738;2023-02-28T00:25:16;-1.80;99.90
3846;DHT22;1938;50.812;7.738;2023-02-28T00:27:42;-1.90;99.90
3846;DHT22;1938;50.812;7.738;2023-02-28T00:30:14;-1.90;99.90
3846;DHT22;1938;50.812;7.738;2023-02-28T00:32:40;-1.90;99.90
3846;DHT22;1938;50.812;7.738;2023-02-28T00:35:07;-1.90;99.90
3846;DHT22;1938;50.812;7.738;2023-02-28T00:37:33;-1.90;99.90
3846;DHT22;1938;50.812;7.738;2023-02-28T00:39:59;-2.00;99.90
3846;DHT22;1938;50.812;7.738;2023-02-28T00:42:25;-2.00;99.90
3846;DHT22;1938;50.812;7.738;2023-02-28T00:44:50;-1.90;99.90
3846;DHT22;1938;50.812;7.738;2023-02-28T00:47:16;-1.90;99.90
3846;DHT22;1938;50.812;7.738;2023-02-28T00:49:41;-1.70;99.90
3846;DHT22;1938;50.812;7.738;2023-02-28T00:52:08;-1.80;99.90
3846;DHT22;1938;50.812;7.738;2023-02-28T00:54:34;-2.00;99.90
3846;DHT22;1938;50.812;7.738;2023-02-28T00:57:00;-2.00;99.90
3846;DHT22;1938;50.812;7.738;2023-02-28T00:59:25;-2.00;99.90
3846;DHT22;1938;50.812;7.738;2023-02-28T01:01:51;-2.10;99.90
3846;DHT22;1938;50.812;7.738;2023-02-28T01:04:17;-2.10;99.90
3846;DHT22;1938;50.812;7.738;2023-02-28T01:06:43;-2.20;99.90
3846;DHT22;1938;50.812;7.738;2023-02-28T01:09:10;-2.10;99.90
3846;DHT22;1938;50.812;7.738;2023-02-28T01:11:36;-2.20;1.00
3846;DHT22;1938;50.812;7.738;2023-02-28T01:14:02;-2.00;1.00
3846;DHT22;1938;50.812;7.738;2023-02-28T01:16:27;-2.10;99.90
3846;DHT22;1938;50.812;7.738;2023-02-28T01:18:53;-1.90;99.90
3846;DHT22;1938;50.812;7.738;2023-02-28T01:21:21;-2.00;99.90
3846;DHT22;1938;50.812;7.738;2023-02-28T01:23:47;-2.10;99.90
3846;DHT22;1938;50.812;7.738;2023-02-28T01:26:16;-2.10;99.90
3846;DHT22;1938;50.812;7.738;2023-02-28T01:28:42;-2.10;99.90
3846;DHT22;1938;50.812;7.738;2023-02-28T01:31:08;-2.20;99.90
3846;DHT22;1938;50.812;7.738;2023-02-28T01:33:34;-2.20;99.90
3846;DHT22;1938;50.812;7.738;2023-02-28T01:36:03;-2.20;99.90
3846;DHT22;1938;50.812;7.738;2023-02-28T01:38:29;-1.90;99.90
3846;DHT22;1938;50.812;7.738;2023-02-28T01:40:55;-1.90;99.90
3846;DHT22;1938;50.812;7.738;2023-02-28T01:43:29;-1.90;99.90
3846;DHT22;1938;50.812;7.738;2023-02-28T01:45:56;-2.00;99.90
3846;DHT22;1938;50.812;7.738;2023-02-28T01:48:26;-2.00;99.90
3846;DHT22;1938;50.812;7.738;2023-02-28T01:50:54;-2.10;99.90
3846;DHT22;1938;50.812;7.738;2023-02-28T01:53:25;-2.10;99.90
3846;DHT22;1938;50.812;7.738;2023-02-28T01:55:53;-2.10;99.90
3846;DHT22;1938;50.812;7.738;2023-02-28T01:58:19;-2.10;99.90
3846;DHT22;1938;50.812;7.738;2023-02-28T02:00:45;-2.10;99.90
3846;DHT22;1938;50.812;7.738;2023-02-28T02:03:14;-1.90;99.90
3846;DHT22;1938;50.812;7.738;2023-02-28T02:05:45;-2.10;30.00
3846;DHT22;1938;50.812;7.738;2023-02-28T02:08:26;-2.10;95.00
3846;DHT22;1938;50.812;7.738;2023-02-28T02:10:57;-2.20;99.90
3846;DHT22;1938;50.812;7.738;2023-02-28T02:16:34;-2.20;20.60
3846;DHT22;1938;50.812;7.738;2023-02-28T02:27:55;-2.00;1.00
3846;DHT22;1938;50.812;7.738;2023-02-28T02:33:28;-2.00;1.00
3846;DHT22;1938;50.812;7.738;2023-02-28T02:36:00;-2.00;1.00
3846;DHT22;1938;50.812;7.738;2023-02-28T02:41:28;-2.00;1.00
3846;DHT22;1938;50.812;7.738;2023-02-28T02:44:11;-2.10;1.00
3846;DHT22;1938;50.812;7.738;2023-02-28T02:46:41;-2.10;1.00
3846;DHT22;1938;50.812;7.738;2023-02-28T02:49:13;-2.10;1.00
3846;DHT22;1938;50.812;7.738;2023-02-28T02:51:41;-2.20;1.00
3846;DHT22;1938;50.812;7.738;2023-02-28T02:54:17;-2.10;13.30
3846;DHT22;1938;50.812;7.738;2023-02-28T02:56:47;-2.20;34.00
3846;DHT22;1938;50.812;7.738;2023-02-28T02:59:17;-2.20;21.20
3846;DHT22;1938;50.812;7.738;2023-02-28T03:01:50;-2.10;1.00
3846;DHT22;1938;50.812;7.738;2023-02-28T03:04:19;-2.20;3.40
3846;DHT22;1938;50.812;7.738;2023-02-28T03:06:46;-2.20;18.20
3846;DHT22;1938;50.812;7.738;2023-02-28T03:09:11;-2.20;51.80
3846;DHT22;1938;50.812;7.738;2023-02-28T03:11:38;-1.90;99.90
3846;DHT22;1938;50.812;7.738;2023-02-28T03:14:17;-2.10;1.00
3846;DHT22;1938;50.812;7.738;2023-02-28T03:22:45;-2.10;1.00
3846;DHT22;1938;50.812;7.738;2023-02-28T03:25:28;-2.20;1.00
3846;DHT22;1938;50.812;7.738;2023-02-28T03:31:29;-2.30;1.00
3846;DHT22;1938;50.812;7.738;2023-02-28T03:34:33;-2.30;1.00
3846;DHT22;1938;50.812;7.738;2023-02-28T03:37:08;-2.00;1.00
3846;DHT22;1938;50.812;7.738;2023-02-28T03:39:42;-2.10;1.00
3846;DHT22;1938;50.812;7.738;2023-02-28T03:42:13;-2.20;1.00
3846;DHT22;1938;50.812;7.738;2023-02-28T03:44:43;-2.20;1.00
3846;DHT22;1938;50.812;7.738;2023-02-28T03:47:14;-2.30;1.00
3846;DHT22;1938;50.812;7.738;2023-02-28T03:49:50;-2.30;1.00
3846;DHT22;1938;50.812;7.738;2023-02-28T03:52:19;-2.30;1.00
3846;DHT22;1938;50.812;7.738;2023-02-28T03:54:51;-2.40;1.00
3846;DHT22;1938;50.812;7.738;2023-02-28T03:57:32;-2.40;1.00
3846;DHT22;1938;50.812;7.738;2023-02-28T04:02:33;-2.20;99.90
3846;DHT22;1938;50.812;7.738;2023-02-28T04:05:00;-2.30;99.90
3846;DHT22;1938;50.812;7.738;2023-02-28T04:07:29;-2.40;1.00
3846;DHT22;1938;50.812;7.738;2023-02-28T04:10:03;-2.40;1.00
3846;DHT22;1938;50.812;7.738;2023-02-28T04:12:29;-2.50;1.00
3846;DHT22;1938;50.812;7.738;2023-02-28T04:14:54;-2.50;1.00
3846;DHT22;1938;50.812;7.738;2023-02-28T04:17:21;-2.50;1.00
3846;DHT22;1938;50.812;7.738;2023-02-28T04:19:47;-2.50;1.00
3846;DHT22;1938;50.812;7.738;2023-02-28T04:22:13;-2.50;1.00
3846;DHT22;1938;50.812;7.738;2023-02-28T04:24:39;-2.30;1.00
3846;DHT22;1938;50.812;7.738;2023-02-28T04:27:06;-2.40;99.90
3846;DHT22;1938;50.812;7.738;2023-02-28T04:29:34;-2.50;99.90
3846;DHT22;1938;50.812;7.738;2023-02-28T04:32:01;-2.50;1.00
3846;DHT22;1938;50.812;7.738;2023-02-28T04:34:29;-2.50;1.00
3846;DHT22;1938;50.812;7.738;2023-02-28T04:36:55;-2.40;1.00
3846;DHT22;1938;50.812;7.738;2023-02-28T04:39:22;-2.50;1.00
3846;DHT22;1938;50.812;7.738;2023-02-28T04:41:48;-2.50;1.00
3846;DHT22;1938;50.812;7.738;2023-02-28T04:44:14;-2.50;1.00
3846;DHT22;1938;50.812;7.738;2023-02-28T04:46:41;-2.50;1.00
3846;DHT22;1938;50.812;7.738;2023-02-28T04:49:08;-2.30;1.00
3846;DHT22;1938;50.812;7.738;2023-02-28T04:51:35;-2.40;1.00
3846;DHT22;1938;50.812;7.738;2023-02-28T04:54:00;-2.50;1.00
3846;DHT22;1938;50.812;7.738;2023-02-28T04:56:26;-2.50;1.00
3846;DHT22;1938;50.812;7.738;2023-02-28T04:58:51;-2.50;1.00
3846;DHT22;1938;50.812;7.738;2023-02-28T05:01:25;-2.50;1.00
3846;DHT22;1938;50.812;7.738;2023-02-28T05:03:52;-2.50;1.00
3846;DHT22;1938;50.812;7.738;2023-02-28T05:06:19;-2.60;1.00
3846;DHT22;1938;50.812;7.738;2023-02-28T05:08:46;-2.60;1.00
3846;DHT22;1938;50.812;7.738;2023-02-28T05:11:21;-2.60;1.00
3846;DHT22;1938;50.812;7.738;2023-02-28T05:13:47;-2.20;1.00
3846;DHT22;1938;50.812;7.738;2023-02-28T05:16:14;-2.30;99.90
3846;DHT22;1938;50.812;7.738;2023-02-28T05:18:40;-2.40;1.00
3846;DHT22;1938;50.812;7.738;2023-02-28T05:21:28;-2.60;1.00
3846;DHT22;1938;50.812;7.738;2023-02-28T05:23:55;-2.70;1.00
3846;DHT22;1938;50.812;7.738;2023-02-28T05:26:21;-2.70;1.00
3846;DHT22;1938;50.812;7.738;2023-02-28T05:28:47;-2.60;1.00
3846;DHT22;1938;50.812;7.738;2023-02-28T05:31:13;-2.80;1.00
3846;DHT22;1938;50.812;7.738;2023-02-28T05:33:38;-2.90;1.00
3846;DHT22;1938;50.812;7.738;2023-02-28T05:36:06;-3.00;29.00
3846;DHT22;1938;50.812;7.738;2023-02-28T05:38:32;-3.00;1.00
3846;DHT22;1938;50.812;7.738;2023-02-28T05:40:58;-3.10;1.00
3846;DHT22;1938;50.812;7.738;2023-02-28T05:43:23;-3.30;15.40
3846;DHT22;1938;50.812;7.738;2023-02-28T05:45:49;-3.40;31.00
3846;DHT22;1938;50.812;7.738;2023-02-28T05:48:15;-3.40;99.10
3846;DHT22;1938;50.812;7.738;2023-02-28T05:50:40;-3.50;99.90
3846;DHT22;1938;50.812;7.738;2023-02-28T05:53:08;-3.50;99.90
3846;DHT22;1938;50.812;7.738;2023-02-28T05:55:33;-3.60;99.90
3846;DHT22;1938;50.812;7.738;2023-02-28T05:58:01;-3.60;99.90
3846;DHT22;1938;50.812;7.738;2023-02-28T06:00:27;-3.60;99.90
3846;DHT22;1938;50.812;7.738;2023-02-28T06:02:53;-3.60;99.90
3846;DHT22;1938;50.812;7.738;2023-02-28T06:05:22;-3.60;99.90
3846;DHT22;1938;50.812;7.738;2023-02-28T06:07:47;-3.60;99.90
3846;DHT22;1938;50.812;7.738;2023-02-28T06:10:13;-3.90;99.90
3846;DHT22;1938;50.812;7.738;2023-02-28T06:12:39;-3.80;1.00
3846;DHT22;1938;50.812;7.738;2023-02-28T06:15:07;-3.70;99.90
3846;DHT22;1938;50.812;7.738;2023-02-28T06:17:36;-3.70;99.90
3846;DHT22;1938;50.812;7.738;2023-02-28T06:20:03;-3.60;99.90
3846;DHT22;1938;50.812;7.738;2023-02-28T06:22:28;-3.60;99.90
3846;DHT22;1938;50.812;7.738;2023-02-28T06:24:54;-3.70;99.90
3846;DHT22;1938;50.812;7.738;2023-02-28T06:27:20;-3.50;51.60
3846;DHT22;1938;50.812;7.738;2023-02-28T06:29:46;-3.60;31.60
3846;DHT22;1938;50.812;7.738;2023-02-28T06:32:12;-3.50;40.30
3846;DHT22;1938;50.812;7.738;2023-02-28T06:34:37;-3.60;25.00
3846;DHT22;1938;50.812;7.738;2023-02-28T06:37:03;-3.60;67.10
3846;DHT22;1938;50.812;7.738;2023-02-28T06:39:31;-3.60;98.40
3846;DHT22;1938;50.812;7.738;2023-02-28T06:41:56;-3.40;19.90
3846;DHT22;1938;50.812;7.738;2023-02-28T06:44:23;-3.60;47.70
3846;DHT22;1938;50.812;7.738;2023-02-28T06:46:49;-3.60;1.00
3846;DHT22;1938;50.812;7.738;2023-02-28T06:49:16;-3.70;70.50
3846;DHT22;1938;50.812;7.738;2023-02-28T06:51:43;-3.60;5.40
3846;DHT22;1938;50.812;7.738;2023-02-28T06:54:12;-3.50;48.70
3846;DHT22;1938;50.812;7.738;2023-02-28T06:56:38;-3.40;40.50
3846;DHT22;1938;50.812;7.738;2023-02-28T06:59:04;-3.40;18.60
3846;DHT22;1938;50.812;7.738;2023-02-28T07:01:30;-3.30;1.00
3846;DHT22;1938;50.812;7.738;2023-02-28T07:03:58;-3.10;1.00
3846;DHT22;1938;50.812;7.738;2023-02-28T07:06:24;-3.00;1.00
3846;DHT22;1938;50.812;7.738;2023-02-28T07:08:51;-2.80;99.90
3846;DHT22;1938;50.812;7.738;2023-02-28T07:11:19;-2.60;99.90
3846;DHT22;1938;50.812;7.738;2023-02-28T07:13:45;-2.40;99.90
3846;DHT22;1938;50.812;7.738;2023-02-28T07:16:12;-2.30;99.90
3846;DHT22;1938;50.812;7.738;2023-02-28T07:18:39;-2.20;99.90
3846;DHT22;1938;50.812;7.738;2023-02-28T07:21:06;-2.00;99.90
3846;DHT22;1938;50.812;7.738;2023-02-28T07:23:32;-1.80;99.90
3846;DHT22;1938;50.812;7.738;2023-02-28T07:25:59;-1.70;99.90
3846;DHT22;1938;50.812;7.738;2023-02-28T07:28:25;-1.50;99.90
3846;DHT22;1938;50.812;7.738;2023-02-28T07:30:50;-1.30;95.10
3846;DHT22;1938;50.812;7.738;2023-02-28T07:33:16;-1.10;94.60
3846;DHT22;1938;50.812;7.738;2023-02-28T07:35:42;-0.80;47.00
3846;DHT22;1938;50.812;7.738;2023-02-28T07:38:08;-0.70;23.80
3846;DHT22;1938;50.812;7.738;2023-02-28T07:40:35;-0.50;9.90
3846;DHT22;1938;50.812;7.738;2023-02-28T07:43:01;-0.40;1.00
3846;DHT22;1938;50.812;7.738;2023-02-28T07:45:27;-0.30;1.00
3846;DHT22;1938;50.812;7.738;2023-02-28T07:47:54;-0.10;1.00
3846;DHT22;1938;50.812;7.738;2023-02-28T07:50:20;0.10;1.00
3846;DHT22;1938;50.812;7.738;2023-02-28T07:52:46;0.10;1.00
3846;DHT22;1938;50.812;7.738;2023-02-28T07:55:12;0.00;1.00
3846;DHT22;1938;50.812;7.738;2023-02-28T07:57:39;0.00;1.00
3846;DHT22;1938;50.812;7.738;2023-02-28T08:00:07;0.00;1.00
3846;DHT22;1938;50.812;7.738;2023-02-28T08:02:35;0.10;1.00
3846;DHT22;1938;50.812;7.738;2023-02-28T08:05:00;0.30;1.00
3846;DHT22;1938;50.812;7.738;2023-02-28T08:07:26;0.40;1.00
3846;DHT22;1938;50.812;7.738;2023-02-28T08:09:52;0.00;1.00
3846;DHT22;1938;50.812;7.738;2023-02-28T08:12:17;-0.20;1.00
3846;DHT22;1938;50.812;7.738;2023-02-28T08:14:43;0.10;1.00
3846;DHT22;1938;50.812;7.738;2023-02-28T08:17:09;-0.10;1.00
3846;DHT22;1938;50.812;7.738;2023-02-28T08:19:35;0.00;1.00
3846;DHT22;1938;50.812;7.738;2023-02-28T08:22:00;0.50;1.00
3846;DHT22;1938;50.812;7.738;2023-02-28T08:24:26;1.20;1.00
3846;DHT22;1938;50.812;7.738;2023-02-28T08:26:51;1.60;1.00
3846;DHT22;1938;50.812;7.738;2023-02-28T08:29:17;1.70;1.00
3846;DHT22;1938;50.812;7.738;2023-02-28T08:31:43;2.60;1.00
3846;DHT22;1938;50.812;7.738;2023-02-28T08:34:10;3.00;1.00
3846;DHT22;1938;50.812;7.738;2023-02-28T08:36:37;2.70;1.00
3846;DHT22;1938;50.812;7.738;2023-02-28T08:39:03;3.10;1.00
3846;DHT22;1938;50.812;7.738;2023-02-28T08:41:29;2.70;1.00
3846;DHT22;1938;50.812;7.738;2023-02-28T08:43:55;2.70;1.00
3846;DHT22;1938;50.812;7.738;2023-02-28T08:46:20;2.70;1.00
3846;DHT22;1938;50.812;7.738;2023-02-28T08:48:46;2.20;1.00
3846;DHT22;1938;50.812;7.738;2023-02-28T08:51:14;2.50;1.00
3846;DHT22;1938;50.812;7.738;2023-02-28T08:53:41;2.50;1.00
3846;DHT22;1938;50.812;7.738;2023-02-28T08:56:12;2.80;1.00
3846;DHT22;1938;50.812;7.738;2023-02-28T08:58:39;2.70;1.00
3846;DHT22;1938;50.812;7.738;2023-02-28T09:01:12;2.60;1.00
3846;DHT22;1938;50.812;7.738;2023-02-28T09:03:38;2.50;1.00
3846;DHT22;1938;50.812;7.738;2023-02-28T09:06:04;2.40;1.00
3846;DHT22;1938;50.812;7.738;2023-02-28T09:08:30;2.50;1.00
3846;DHT22;1938;50.812;7.738;2023-02-28T09:10:57;2.20;1.00
3846;DHT22;1938;50.812;7.738;2023-02-28T09:13:24;2.00;1.00
3846;DHT22;1938;50.812;7.738;2023-02-28T09:15:49;2.20;1.00
3846;DHT22;1938;50.812;7.738;2023-02-28T09:18:15;1.90;1.00
3846;DHT22;1938;50.812;7.738;2023-02-28T09:20:42;1.90;1.00
3846;DHT22;1938;50.812;7.738;2023-02-28T09:23:09;1.80;1.00
3846;DHT22;1938;50.812;7.738;2023-02-28T09:25:35;1.60;1.00
3846;DHT22;1938;50.812;7.738;2023-02-28T09:28:01;1.70;1.00
3846;DHT22;1938;50.812;7.738;2023-02-28T09:30:27;1.60;1.00
3846;DHT22;1938;50.812;7.738;2023-02-28T09:32:54;1.70;1.00
3846;DHT22;1938;50.812;7.738;2023-02-28T09:35:20;1.90;1.00
3846;DHT22;1938;50.812;7.738;2023-02-28T09:37:47;1.80;1.00
3846;DHT22;1938;50.812;7.738;2023-02-28T09:40:14;1.70;1.00
3846;DHT22;1938;50.812;7.738;2023-02-28T09:42:42;1.90;1.00
3846;DHT22;1938;50.812;7.738;2023-02-28T09:45:22;2.20;1.00
3846;DHT22;1938;50.812;7.738;2023-02-28T09:47:50;2.30;1.00
3846;DHT22;1938;50.812;7.738;2023-02-28T09:52:51;2.40;1.00
3846;DHT22;1938;50.812;7.738;2023-02-28T09:55:45;3.00;1.00
3846;DHT22;1938;50.812;7.738;2023-02-28T09:58:26;2.20;1.00
3846;DHT22;1938;50.812;7.738;2023-02-28T10:06:22;2.20;1.00
3846;DHT22;1938;50.812;7.738;2023-02-28T10:09:04;2.20;1.00
3846;DHT22;1938;50.812;7.738;2023-02-28T10:11:36;2.10;1.00
3846;DHT22;1938;50.812;7.738;2023-02-28T10:14:18;2.10;1.00
3846;DHT22;1938;50.812;7.738;2023-02-28T10:16:48;2.00;1.00
3846;DHT22;1938;50.812;7.738;2023-02-28T10:19:30;2.10;1.00
3846;DHT22;1938;50.812;7.738;2023-02-28T10:22:05;2.30;1.00
3846;DHT22;1938;50.812;7.738;2023-02-28T10:24:39;2.30;1.00
3846;DHT22;1938;50.812;7.738;2023-02-28T10:27:17;2.50;1.00
3846;DHT22;1938;50.812;7.738;2023-02-28T10:29:55;2.70;1.00
3846;DHT22;1938;50.812;7.738;2023-02-28T10:32:24;2.60;1.00
3846;DHT22;1938;50.812;7.738;2023-02-28T10:37:37;2.70;1.00
3846;DHT22;1938;50.812;7.738;2023-02-28T10:40:05;2.90;1.00
3846;DHT22;1938;50.812;7.738;2023-02-28T10:42:31;2.90;1.00
3846;DHT22;1938;50.812;7.738;2023-02-28T10:45:16;3.00;1.00
3846;DHT22;1938;50.812;7.738;2023-02-28T10:48:25;3.20;1.00
3846;DHT22;1938;50.812;7.738;2023-02-28T10:50:53;3.20;1.00
3846;DHT22;1938;50.812;7.738;2023-02-28T11:03:58;3.60;1.00
3846;DHT22;1938;50.812;7.738;2023-02-28T11:06:30;3.90;1.00
3846;DHT22;1938;50.812;7.738;2023-02-28T11:09:04;3.90;1.00
3846;DHT22;1938;50.812;7.738;2023-02-28T11:11:43;4.00;1.00
3846;DHT22;1938;50.812;7.738;2023-02-28T11:16:45;3.90;1.00
3846;DHT22;1938;50.812;7.738;2023-02-28T11:19:20;3.60;1.00
3846;DHT22;1938;50.812;7.738;2023-02-28T11:22:05;3.50;1.00
3846;DHT22;1938;50.812;7.738;2023-02-28T11:24:33;3.60;1.00
3846;DHT22;1938;50.812;7.738;2023-02-28T11:27:01;3.50;1.00
3846;DHT22;1938;50.812;7.738;2023-02-28T11:29:28;3.50;1.00
3846;DHT22;1938;50.812;7.738;2023-02-28T11:34:32;3.70;1.00
3846;DHT22;1938;50.812;7.738;2023-02-28T11:36:59;3.60;1.00
3846;DHT22;1938;50.812;7.738;2023-02-28T11:39:25;3.40;1.00
3846;DHT22;1938;50.812;7.738;2023-02-28T11:50:12;2.80;1.00
3846;DHT22;1938;50.812;7.738;2023-02-28T11:55:49;2.80;1.00
3846;DHT22;1938;50.812;7.738;2023-02-28T12:01:18;3.20;1.00
3846;DHT22;1938;50.812;7.738;2023-02-28T12:06:40;3.40;1.00
3846;DHT22;1938;50.812;7.738;2023-02-28T12:11:52;3.30;1.00
3846;DHT22;1938;50.812;7.738;2023-02-28T12:14:23;3.40;1.00
3846;DHT22;1938;50.812;7.738;2023-02-28T12:17:24;3.30;1.00
3846;DHT22;1938;50.812;7.738;2023-02-28T12:28:09;3.20;1.00
3846;DHT22;1938;50.812;7.738;2023-02-28T12:30:37;3.20;1.00
3846;DHT22;1938;50.812;7.738;2023-02-28T12:33:09;3.10;1.00
3846;DHT22;1938;50.812;7.738;2023-02-28T12:35:52;3.20;1.00
3846;DHT22;1938;50.812;7.738;2023-02-28T12:38:44;3.20;1.00
3846;DHT22;1938;50.812;7.738;2023-02-28T12:43:44;3.10;1.00
3846;DHT22;1938;50.812;7.738;2023-02-28T12:46:21;2.80;1.00
3846;DHT22;1938;50.812;7.738;2023-02-28T12:48:52;2.90;1.00
3846;DHT22;1938;50.812;7.738;2023-02-28T12:51:21;3.10;1.00
3846;DHT22;1938;50.812;7.738;2023-02-28T12:54:12;3.20;1.00
3846;DHT22;1938;50.812;7.738;2023-02-28T12:57:28;3.20;1.00
3846;DHT22;1938;50.812;7.738;2023-02-28T12:59:45;3.30;1.00
3846;DHT22;1938;50.812;7.738;2023-02-28T13:10:20;3.50;1.00
3846;DHT22;1938;50.812;7.738;2023-02-28T13:12:54;3.30;1.00
3846;DHT22;1938;50.812;7.738;2023-02-28T13:15:26;3.30;1.00
3846;DHT22;1938;50.812;7.738;2023-02-28T13:17:56;3.10;1.00
3846;DHT22;1938;50.812;7.738;2023-02-28T13:22:53;3.20;1.00
3846;DHT22;1938;50.812;7.738;2023-02-28T13:27:55;3.40;1.00
3846;DHT22;1938;50.812;7.738;2023-02-28T13:33:24;3.50;1.00
3846;DHT22;1938;50.812;7.738;2023-02-28T13:36:08;3.50;1.00
3846;DHT22;1938;50.812;7.738;2023-02-28T13:38:42;3.60;1.00
3846;DHT22;1938;50.812;7.738;2023-02-28T13:46:29;3.50;1.00
3846;DHT22;1938;50.812;7.738;2023-02-28T13:48:55;3.50;1.00
3846;DHT22;1938;50.812;7.738;2023-02-28T13:51:44;3.60;1.00
3846;DHT22;1938;50.812;7.738;2023-02-28T13:54:18;3.60;1.00
3846;DHT22;1938;50.812;7.738;2023-02-28T14:00:06;3.70;1.00
3846;DHT22;1938;50.812;7.738;2023-02-28T14:06:31;3.60;1.00
3846;DHT22;1938;50.812;7.738;2023-02-28T14:09:03;3.40;1.00
3846;DHT22;1938;50.812;7.738;2023-02-28T14:11:41;3.50;1.00
3846;DHT22;1938;50.812;7.738;2023-02-28T14:14:08;3.60;1.00
3846;DHT22;1938;50.812;7.738;2023-02-28T14:16:44;3.50;1.00
3846;DHT22;1938;50.812;7.738;2023-02-28T14:19:27;3.50;1.00
3846;DHT22;1938;50.812;7.738;2023-02-28T14:22:13;3.30;1.00
3846;DHT22;1938;50.812;7.738;2023-02-28T14:27:35;3.50;1.00
3846;DHT22;1938;50.812;7.738;2023-02-28T14:33:26;3.60;1.00
3846;DHT22;1938;50.812;7.738;2023-02-28T14:36:12;3.60;1.00
3846;DHT22;1938;50.812;7.738;2023-02-28T14:38:40;3.50;1.00
3846;DHT22;1938;50.812;7.738;2023-02-28T14:41:19;3.50;1.00
3846;DHT22;1938;50.812;7.738;2023-02-28T14:43:55;3.50;1.00
3846;DHT22;1938;50.812;7.738;2023-02-28T14:46:23;3.60;1.00
3846;DHT22;1938;50.812;7.738;2023-02-28T14:48:50;3.50;1.00
3846;DHT22;1938;50.812;7.738;2023-02-28T14:51:21;3.60;1.00
3846;DHT22;1938;50.812;7.738;2023-02-28T14:53:55;3.60;1.00
3846;DHT22;1938;50.812;7.738;2023-02-28T14:56:30;3.60;1.00
3846;DHT22;1938;50.812;7.738;2023-02-28T14:58:57;3.80;1.00
3846;DHT22;1938;50.812;7.738;2023-02-28T15:01:25;3.70;1.00
3846;DHT22;1938;50.812;7.738;2023-02-28T15:04:01;3.70;1.00
3846;DHT22;1938;50.812;7.738;2023-02-28T15:06:28;3.70;1.00
3846;DHT22;1938;50.812;7.738;2023-02-28T15:09:08;3.60;1.00
3846;DHT22;1938;50.812;7.738;2023-02-28T15:11:34;3.60;1.00
3846;DHT22;1938;50.812;7.738;2023-02-28T15:14:00;3.60;1.00
3846;DHT22;1938;50.812;7.738;2023-02-28T15:16:32;3.70;1.00
3846;DHT22;1938;50.812;7.738;2023-02-28T15:19:01;3.70;1.00
3846;DHT22;1938;50.812;7.738;2023-02-28T15:21:34;3.70;1.00
3846;DHT22;1938;50.812;7.738;2023-02-28T15:24:05;3.60;1.00
3846;DHT22;1938;50.812;7.738;2023-02-28T15:26:40;3.60;1.00
3846;DHT22;1938;50.812;7.738;2023-02-28T15:29:15;3.60;1.00
3846;DHT22;1938;50.812;7.738;2023-02-28T15:31:48;3.60;1.00
3846;DHT22;1938;50.812;7.738;2023-02-28T15:34:19;3.60;1.00
3846;DHT22;1938;50.812;7.738;2023-02-28T15:36:46;3.50;1.00
3846;DHT22;1938;50.812;7.738;2023-02-28T15:39:23;3.60;1.00
3846;DHT22;1938;50.812;7.738;2023-02-28T15:41:50;3.60;1.00
3846;DHT22;1938;50.812;7.738;2023-02-28T15:47:17;3.70;1.00
3846;DHT22;1938;50.812;7.738;2023-02-28T15:49:57;3.60;1.00
3846;DHT22;1938;50.812;7.738;2023-02-28T15:52:42;3.60;1.00
3846;DHT22;1938;50.812;7.738;2023-02-28T15:55:20;3.50;1.00
3846;DHT22;1938;50.812;7.738;2023-02-28T15:57:49;3.40;1.00
3846;DHT22;1938;50.812;7.738;2023-02-28T16:00:21;3.50;1.00
3846;DHT22;1938;50.812;7.738;2023-02-28T16:02:47;3.50;1.00
3846;DHT22;1938;50.812;7.738;2023-02-28T16:08:13;3.20;1.00
3846;DHT22;1938;50.812;7.738;2023-02-28T16:10:39;3.20;1.00
3846;DHT22;1938;50.812;7.738;2023-02-28T16:13:05;3.10;1.00
3846;DHT22;1938;50.812;7.738;2023-02-28T16:15:35;3.20;1.00
3846;DHT22;1938;50.812;7.738;2023-02-28T16:18:12;3.10;1.00
3846;DHT22;1938;50.812;7.738;2023-02-28T16:20:38;3.10;1.00
3846;DHT22;1938;50.812;7.738;2023-02-28T16:23:03;3.10;1.00
3846;DHT22;1938;50.812;7.738;2023-02-28T16:25:40;3.00;1.00
3846;DHT22;1938;50.812;7.738;2023-02-28T16:28:18;3.10;1.00
3846;DHT22;1938;50.812;7.738;2023-02-28T16:30:44;3.10;1.00
3846;DHT22;1938;50.812;7.738;2023-02-28T16:33:10;3.00;1.00
3846;DHT22;1938;50.812;7.738;2023-02-28T16:35:35;3.10;1.00
3846;DHT22;1938;50.812;7.738;2023-02-28T16:38:01;3.10;1.00
3846;DHT22;1938;50.812;7.738;2023-02-28T16:40:27;3.00;1.00
3846;DHT22;1938;50.812;7.738;2023-02-28T16:42:57;3.00;1.00
3846;DHT22;1938;50.812;7.738;2023-02-28T16:45:26;2.90;1.00
3846;DHT22;1938;50.812;7.738;2023-02-28T16:47:52;2.90;1.00
3846;DHT22;1938;50.812;7.738;2023-02-28T16:50:21;2.80;1.00
3846;DHT22;1938;50.812;7.738;2023-02-28T16:52:47;2.70;1.00
3846;DHT22;1938;50.812;7.738;2023-02-28T16:55:13;2.70;1.00
3846;DHT22;1938;50.812;7.738;2023-02-28T16:57:39;2.70;1.00
3846;DHT22;1938;50.812;7.738;2023-02-28T17:00:07;2.60;1.00
3846;DHT22;1938;50.812;7.738;2023-02-28T17:02:34;2.60;1.00
3846;DHT22;1938;50.812;7.738;2023-02-28T17:05:00;2.50;1.00
3846;DHT22;1938;50.812;7.738;2023-02-28T17:07:25;2.40;1.00
3846;DHT22;1938;50.812;7.738;2023-02-28T17:09:51;2.40;1.00
3846;DHT22;1938;50.812;7.738;2023-02-28T17:12:16;2.30;1.00
3846;DHT22;1938;50.812;7.738;2023-02-28T17:14:42;2.30;1.00
3846;DHT22;1938;50.812;7.738;2023-02-28T17:17:15;2.20;1.00
3846;DHT22;1938;50.812;7.738;2023-02-28T17:19:42;2.10;1.00
3846;DHT22;1938;50.812;7.738;2023-02-28T17:22:09;2.10;1.00
3846;DHT22;1938;50.812;7.738;2023-02-28T17:24:35;2.00;1.00
3846;DHT22;1938;50.812;7.738;2023-02-28T17:27:01;2.00;1.00
3846;DHT22;1938;50.812;7.738;2023-02-28T17:29:27;2.00;1.00
3846;DHT22;1938;50.812;7.738;2023-02-28T17:31:53;1.90;1.00
3846;DHT22;1938;50.812;7.738;2023-02-28T17:34:19;1.90;1.00
3846;DHT22;1938;50.812;7.738;2023-02-28T17:36:51;1.90;1.00
3846;DHT22;1938;50.812;7.738;2023-02-28T17:39:18;1.90;1.00
3846;DHT22;1938;50.812;7.738;2023-02-28T17:41:51;1.80;1.00
3846;DHT22;1938;50.812;7.738;2023-02-28T17:44:17;1.80;1.00
3846;DHT22;1938;50.812;7.738;2023-02-28T17:46:44;1.70;1.00
3846;DHT22;1938;50.812;7.738;2023-02-28T17:49:11;1.70;1.00
3846;DHT22;1938;50.812;7.738;2023-02-28T17:51:37;1.70;1.00
3846;DHT22;1938;50.812;7.738;2023-02-28T17:54:02;1.60;1.00
3846;DHT22;1938;50.812;7.738;2023-02-28T17:56:28;1.70;1.00
3846;DHT22;1938;50.812;7.738;2023-02-28T17:58:55;1.70;1.00
3846;DHT22;1938;50.812;7.738;2023-02-28T18:01:22;1.60;1.00
3846;DHT22;1938;50.812;7.738;2023-02-28T18:03:48;1.40;1.00
3846;DHT22;1938;50.812;7.738;2023-02-28T18:06:28;1.50;1.00
3846;DHT22;1938;50.812;7.738;2023-02-28T18:08:55;1.40;1.00
3846;DHT22;1938;50.812;7.738;2023-02-28T18:11:22;1.40;1.00
3846;DHT22;1938;50.812;7.738;2023-02-28T18:13:50;1.40;1.00
3846;DHT22;1938;50.812;7.738;2023-02-28T18:16:16;1.40;1.00
3846;DHT22;1938;50.812;7.738;2023-02-28T18:18:42;1.50;1.00
3846;DHT22;1938;50.812;7.738;2023-02-28T18:21:10;1.60;1.00
3846;DHT22;1938;50.812;7.738;2023-02-28T18:23:36;1.50;1.00
3846;DHT22;1938;50.812;7.738;2023-02-28T18:26:06;1.40;1.00
3846;DHT22;1938;50.812;7.738;2023-02-28T18:28:33;1.40;1.00
3846;DHT22;1938;50.812;7.738;2023-02-28T18:31:08;1.30;1.00
3846;DHT22;1938;50.812;7.738;2023-02-28T18:33:34;1.30;1.00
3846;DHT22;1938;50.812;7.738;2023-02-28T18:36:00;1.30;1.00
3846;DHT22;1938;50.812;7.738;2023-02-28T18:38:26;1.30;1.00
3846;DHT22;1938;50.812;7.738;2023-02-28T18:40:55;1.30;1.00
3846;DHT22;1938;50.812;7.738;2023-02-28T18:43:21;1.50;1.00